createdAt,value
2022-09-12T00:00:46.262Z,19.27
2022-09-12T00:03:33.906Z,17.42
2022-09-12T00:06:01.148Z,16.88
2022-09-12T00:08:28.462Z,15.45
2022-09-12T00:10:55.653Z,19.05
2022-09-12T00:13:23.445Z,16.23
2022-09-12T00:15:50.827Z,19.42
2022-09-12T00:18:18.152Z,17.35
2022-09-12T00:20:47.714Z,19.35
2022-09-12T00:23:15.171Z,16.08
2022-09-12T00:25:45.178Z,14.07
2022-09-12T00:28:13.671Z,19.92
2022-09-12T00:30:46.452Z,14.27
2022-09-12T00:33:15.203Z,14.15
2022-09-12T00:35:48.383Z,17.38
2022-09-12T00:38:17.363Z,14.60
2022-09-12T00:40:45.305Z,17.25
2022-09-12T00:43:34.494Z,14.13
2022-09-12T00:46:19.289Z,17.55
2022-09-12T00:48:52.133Z,15.98
2022-09-12T00:51:20.454Z,17.95
2022-09-12T00:53:50.442Z,15.50
2022-09-12T00:56:18.868Z,18.27
2022-09-12T00:58:55.789Z,16.50
2022-09-12T01:01:23.361Z,29.70
2022-09-12T01:03:50.889Z,17.20
2022-09-12T01:06:30.516Z,16.58
2022-09-12T01:08:59.708Z,20.75
2022-09-12T01:11:27.145Z,19.38
2022-09-12T01:13:55.175Z,21.52
2022-09-12T01:16:22.684Z,21.33
2022-09-12T01:19:09.107Z,19.65
2022-09-12T01:22:14.689Z,20.48
2022-09-12T01:24:54.836Z,20.48
2022-09-12T01:27:50.723Z,21.70
2022-09-12T01:31:05.959Z,21.75
2022-09-12T01:33:44.386Z,19.73
2022-09-12T01:36:36.722Z,19.98
2022-09-12T01:39:29.788Z,21.08
2022-09-12T01:42:11.205Z,20.48
2022-09-12T01:44:57.302Z,20.50
2022-09-12T01:47:42.637Z,25.05
2022-09-12T01:50:20.008Z,27.25
2022-09-12T01:52:55.781Z,26.60
2022-09-12T01:55:44.082Z,23.10
2022-09-12T01:58:17.222Z,22.85
2022-09-12T02:01:04.720Z,30.33
2022-09-12T02:03:39.620Z,21.75
2022-09-12T02:06:15.117Z,24.33
2022-09-12T02:08:47.854Z,23.83
2022-09-12T02:11:15.419Z,28.45
2022-09-12T02:13:44.575Z,29.55
2022-09-12T02:16:29.330Z,27.52
2022-09-12T02:19:02.979Z,29.08
2022-09-12T02:21:33.069Z,28.45
2022-09-12T02:24:02.977Z,27.80
2022-09-12T02:26:35.480Z,31.20
2022-09-12T02:29:04.403Z,29.45
2022-09-12T02:31:42.768Z,31.30
2022-09-12T02:34:21.775Z,29.88
2022-09-12T02:36:58.100Z,35.97
2022-09-12T02:39:25.683Z,38.25
2022-09-12T02:41:56.681Z,34.95
2022-09-12T02:44:25.948Z,35.78
2022-09-12T02:46:58.612Z,34.67
2022-09-12T02:49:25.906Z,36.10
2022-09-12T02:51:53.382Z,33.70
2022-09-12T02:54:21.690Z,32.22
2022-09-12T02:56:48.926Z,33.83
2022-09-12T02:59:19.441Z,28.75
2022-09-12T03:02:05.877Z,32.38
2022-09-12T03:05:03.993Z,30.30
2022-09-12T03:07:54.471Z,34.05
2022-09-12T03:10:37.418Z,28.33
2022-09-12T03:13:30.707Z,33.53
2022-09-12T03:16:46.945Z,26.92
2022-09-12T03:19:34.983Z,26.25
2022-09-12T03:22:42.522Z,23.65
2022-09-12T03:25:22.655Z,27.63
2022-09-12T03:27:58.663Z,25.33
2022-09-12T03:30:27.167Z,24.20
2022-09-12T03:32:55.382Z,26.63
2022-09-12T03:35:24.909Z,28.05
2022-09-12T03:37:53.176Z,25.95
2022-09-12T03:40:20.923Z,29.73
2022-09-12T03:42:48.168Z,26.25
2022-09-12T03:45:16.668Z,27.63
2022-09-12T03:47:43.901Z,27.90
2022-09-12T03:50:11.286Z,28.55
2022-09-12T03:52:38.685Z,30.40
2022-09-12T03:55:06.496Z,26.45
2022-09-12T03:57:33.695Z,28.42
2022-09-12T04:00:02.084Z,25.85
2022-09-12T04:02:39.852Z,25.40
2022-09-12T04:05:07.598Z,25.63
2022-09-12T04:07:34.868Z,24.13
2022-09-12T04:10:02.005Z,39.42
2022-09-12T04:12:29.779Z,47.50
2022-09-12T04:15:15.871Z,74.65
2022-09-12T04:17:43.347Z,29.67
2022-09-12T04:20:10.772Z,33.35
2022-09-12T04:22:37.986Z,24.50
2022-09-12T04:25:05.733Z,22.77
2022-09-12T04:27:33.139Z,22.20
2022-09-12T04:30:02.189Z,36.53
2022-09-12T04:32:31.474Z,21.52
2022-09-12T04:35:17.462Z,19.15
2022-09-12T04:37:44.819Z,21.17
2022-09-12T04:40:12.886Z,22.70
2022-09-12T04:42:39.993Z,20.63
2022-09-12T04:45:08.035Z,21.95
2022-09-12T04:47:35.426Z,19.25
2022-09-12T04:50:02.552Z,20.38
2022-09-12T04:52:30.139Z,20.55
2022-09-12T04:55:00.355Z,18.25
2022-09-12T04:57:27.969Z,22.38
2022-09-12T04:59:55.329Z,20.75
2022-09-12T05:02:22.731Z,23.05
2022-09-12T05:04:50.377Z,23.27
2022-09-12T05:07:17.704Z,18.27
2022-09-12T05:09:45.551Z,20.20
2022-09-12T05:12:14.232Z,19.58
2022-09-12T05:14:41.878Z,17.92
2022-09-12T05:17:09.145Z,21.98
2022-09-12T05:19:36.927Z,24.45
2022-09-12T05:22:06.614Z,20.40
2022-09-12T05:24:34.031Z,23.30
2022-09-12T05:27:03.409Z,24.10
2022-09-12T05:29:31.355Z,25.13
2022-09-12T05:31:58.581Z,26.00
2022-09-12T05:34:25.715Z,24.77
2022-09-12T05:36:53.321Z,26.40
2022-09-12T05:39:20.996Z,25.00
2022-09-12T05:41:48.168Z,24.52
2022-09-12T05:44:15.935Z,23.48
2022-09-12T05:46:45.593Z,18.50
2022-09-12T05:49:14.426Z,16.58
2022-09-12T05:51:45.828Z,23.05
2022-09-12T05:56:44.115Z,16.17
2022-09-12T05:59:14.396Z,16.38
2022-09-12T06:01:42.245Z,22.48
2022-09-12T06:04:10.318Z,19.13
2022-09-12T06:06:41.864Z,16.77
2022-09-12T06:09:09.971Z,16.10
2022-09-12T06:11:40.831Z,17.30
2022-09-12T06:14:12.705Z,16.65
2022-09-12T06:16:40.663Z,17.02
2022-09-12T06:19:20.262Z,13.55
2022-09-12T06:21:49.691Z,11.80
2022-09-12T06:24:18.300Z,15.55
2022-09-12T06:26:47.427Z,9.73
2022-09-12T06:29:15.221Z,11.18
2022-09-12T06:31:43.239Z,8.60
2022-09-12T06:34:14.112Z,11.50
2022-09-12T06:36:47.619Z,10.63
2022-09-12T06:39:17.472Z,8.80
2022-09-12T06:41:45.407Z,8.15
2022-09-12T06:44:19.397Z,8.50
2022-09-12T06:46:47.273Z,11.85
2022-09-12T06:49:14.831Z,10.00
2022-09-12T06:51:43.298Z,9.88
2022-09-12T06:54:16.781Z,9.63
2022-09-12T06:56:44.282Z,9.13
2022-09-12T06:59:11.964Z,9.95
2022-09-12T07:01:40.276Z,11.05
2022-09-12T07:04:07.753Z,8.25
2022-09-12T07:06:41.568Z,9.10
2022-09-12T07:09:18.173Z,7.20
2022-09-12T07:11:46.464Z,10.90
2022-09-12T07:14:14.915Z,12.13
2022-09-12T07:16:43.094Z,9.85
2022-09-12T07:19:10.977Z,9.55
2022-09-12T07:21:40.499Z,7.55
2022-09-12T07:24:10.092Z,8.75
2022-09-12T07:26:39.895Z,7.85
2022-09-12T07:29:36.446Z,8.15
2022-09-12T07:31:54.811Z,9.27
2022-09-12T07:34:22.280Z,8.35
2022-09-12T07:36:49.489Z,7.60
2022-09-12T07:39:17.254Z,9.57
2022-09-12T07:41:44.579Z,7.75
2022-09-12T07:44:11.722Z,6.93
2022-09-12T07:46:40.129Z,8.65
2022-09-12T07:49:08.589Z,4.78
2022-09-12T07:51:35.957Z,6.55
2022-09-12T07:54:07.875Z,7.82
2022-09-12T07:56:38.890Z,8.35
2022-09-12T07:59:08.389Z,6.00
2022-09-12T08:01:35.955Z,5.70
2022-09-12T08:04:05.178Z,10.77
2022-09-12T08:06:35.977Z,9.18
2022-09-12T08:09:04.795Z,5.97
2022-09-12T08:11:32.717Z,7.22
2022-09-12T08:14:01.814Z,6.97
2022-09-12T08:16:32.544Z,4.40
2022-09-12T08:19:02.408Z,5.55
2022-09-12T08:21:31.829Z,8.25
2022-09-12T08:24:04.882Z,5.65
2022-09-12T08:26:36.048Z,5.43
2022-09-12T08:29:04.214Z,8.32
2022-09-12T08:31:36.566Z,6.47
2022-09-12T08:34:05.503Z,7.25
2022-09-12T08:36:33.293Z,7.90
2022-09-12T08:39:04.511Z,7.80
2022-09-12T08:41:34.991Z,10.10
2022-09-12T08:44:09.455Z,9.13
2022-09-12T08:46:51.781Z,8.48
2022-09-12T08:49:33.791Z,8.75
2022-09-12T08:52:09.744Z,11.48
2022-09-12T08:54:39.270Z,11.45
2022-09-12T08:57:10.160Z,10.48
2022-09-12T08:59:44.815Z,8.95
2022-09-12T09:02:37.084Z,6.38
2022-09-12T09:05:29.442Z,7.25
2022-09-12T09:08:13.380Z,6.32
2022-09-12T09:11:02.368Z,6.30
2022-09-12T09:14:29.580Z,8.82
2022-09-12T09:16:57.858Z,8.05
2022-09-12T09:19:39.455Z,6.15
2022-09-12T09:22:37.105Z,7.78
2022-09-12T09:25:15.168Z,7.15
2022-09-12T09:27:50.584Z,4.85
2022-09-12T09:30:21.523Z,7.95
2022-09-12T09:32:56.369Z,6.15
2022-09-12T09:35:45.833Z,7.78
2022-09-12T09:38:24.019Z,6.38
2022-09-12T09:41:12.352Z,5.13
2022-09-12T09:43:39.709Z,7.72
2022-09-12T09:46:07.692Z,7.53
2022-09-12T09:48:37.774Z,5.22
2022-09-12T09:51:07.192Z,7.63
2022-09-12T09:53:56.718Z,8.30
2022-09-12T09:56:42.422Z,4.65
2022-09-12T09:59:26.051Z,4.75
2022-09-12T10:01:56.911Z,5.10
2022-09-12T10:04:29.480Z,6.45
2022-09-12T10:06:58.895Z,6.80
2022-09-12T10:09:28.706Z,4.60
2022-09-12T10:11:57.284Z,4.65
2022-09-12T10:14:42.452Z,5.00
2022-09-12T10:17:33.908Z,5.60
2022-09-12T10:22:51.073Z,7.03
2022-09-12T10:25:21.397Z,6.45
2022-09-12T10:28:00.898Z,5.32
2022-09-12T10:30:29.217Z,6.32
2022-09-12T10:33:06.997Z,5.18
2022-09-12T10:35:49.692Z,3.42
2022-09-12T10:38:26.791Z,5.28
2022-09-12T10:41:05.018Z,4.30
2022-09-12T10:43:38.192Z,7.88
2022-09-12T10:46:19.263Z,5.97
2022-09-12T10:48:51.700Z,4.78
2022-09-12T10:51:25.261Z,6.72
2022-09-12T10:54:02.134Z,4.75
2022-09-12T10:56:53.251Z,4.53
2022-09-12T10:59:41.937Z,3.67
2022-09-12T11:02:31.072Z,5.82
2022-09-12T11:05:13.262Z,5.60
2022-09-12T11:07:57.108Z,6.05
2022-09-12T11:10:44.392Z,3.95
2022-09-12T11:13:24.231Z,4.32
2022-09-12T11:16:14.377Z,5.45
2022-09-12T11:19:05.881Z,5.35
2022-09-12T11:22:00.160Z,4.45
2022-09-12T11:25:12.028Z,4.57
2022-09-12T11:30:18.075Z,4.25
2022-09-12T11:33:19.436Z,7.43
2022-09-12T11:35:54.947Z,3.10
2022-09-12T11:38:37.038Z,5.35
2022-09-12T11:41:15.425Z,4.15
2022-09-12T11:44:08.664Z,4.35
2022-09-12T11:46:38.314Z,5.10
2022-09-12T11:52:02.236Z,3.05
2022-09-12T11:55:00.960Z,7.65
2022-09-12T11:57:48.127Z,4.75
2022-09-12T12:00:20.707Z,4.22
2022-09-12T12:03:06.956Z,5.43
2022-09-12T12:06:06.916Z,4.60
2022-09-12T12:08:43.078Z,4.07
2022-09-12T12:11:26.746Z,5.53
2022-09-12T12:14:07.864Z,2.63
2022-09-12T12:16:39.589Z,4.07
2022-09-12T12:19:16.005Z,4.22
2022-09-12T12:21:44.227Z,4.55
2022-09-12T12:24:25.490Z,4.47
2022-09-12T12:26:58.080Z,3.40
2022-09-12T12:29:31.767Z,3.40
2022-09-12T12:32:02.105Z,4.15
2022-09-12T12:34:35.546Z,4.35
2022-09-12T12:37:19.790Z,3.90
2022-09-12T12:39:49.370Z,5.95
2022-09-12T12:42:35.175Z,5.70
2022-09-12T12:45:09.799Z,4.78
2022-09-12T12:47:44.437Z,4.75
2022-09-12T12:50:19.265Z,2.92
2022-09-12T12:53:05.614Z,6.13
2022-09-12T12:55:38.701Z,3.78
2022-09-12T12:58:27.590Z,4.78
2022-09-12T13:01:13.262Z,3.65
2022-09-12T13:04:00.171Z,5.47
2022-09-12T13:06:27.600Z,4.40
2022-09-12T13:09:02.322Z,3.78
2022-09-12T13:11:36.716Z,4.40
2022-09-12T13:14:28.109Z,7.03
2022-09-12T13:19:32.539Z,4.95
2022-09-12T13:22:05.823Z,7.03
2022-09-12T13:24:33.997Z,5.70
2022-09-12T13:27:02.280Z,6.32
2022-09-12T13:29:29.499Z,4.63
2022-09-12T13:32:02.078Z,4.03
2022-09-12T13:34:36.163Z,6.60
2022-09-12T13:37:33.165Z,4.78
2022-09-12T13:40:41.158Z,8.20
2022-09-12T13:43:15.213Z,7.22
2022-09-12T13:45:45.646Z,3.63
2022-09-12T13:48:23.745Z,5.70
2022-09-12T13:50:52.771Z,7.80
2022-09-12T13:53:24.029Z,5.25
2022-09-12T13:55:59.331Z,4.25
2022-09-12T13:58:29.770Z,5.03
2022-09-12T14:01:08.023Z,6.15
2022-09-12T14:04:00.964Z,4.10
2022-09-12T14:06:28.467Z,5.38
2022-09-12T14:08:57.482Z,5.97
2022-09-12T14:11:30.464Z,6.18
2022-09-12T14:13:58.344Z,4.32
2022-09-12T14:16:29.016Z,3.28
2022-09-12T14:18:57.266Z,4.85
2022-09-12T14:21:34.163Z,3.60
2022-09-12T14:24:04.839Z,4.90
2022-09-12T14:26:37.563Z,7.30
2022-09-12T14:29:07.538Z,5.82
2022-09-12T14:31:38.052Z,5.82
2022-09-12T14:34:12.277Z,4.28
2022-09-12T14:36:45.552Z,4.97
2022-09-12T14:39:28.361Z,7.97
2022-09-12T14:42:11.750Z,6.70
2022-09-12T14:44:40.849Z,6.82
2022-09-12T14:47:20.864Z,6.47
2022-09-12T14:49:50.096Z,5.57
2022-09-12T14:52:27.960Z,4.68
2022-09-12T14:54:59.670Z,5.90
2022-09-12T14:57:40.507Z,3.95
2022-09-12T15:00:13.836Z,7.57
2022-09-12T15:02:44.940Z,7.43
2022-09-12T15:05:12.179Z,11.30
2022-09-12T15:07:51.269Z,5.25
2022-09-12T15:10:25.444Z,9.30
2022-09-12T15:13:16.604Z,6.93
2022-09-12T15:15:47.912Z,6.65
2022-09-12T15:18:16.659Z,5.70
2022-09-12T15:20:45.568Z,8.48
2022-09-12T15:23:49.195Z,7.97
2022-09-12T15:26:22.771Z,5.05
2022-09-12T15:28:52.076Z,7.68
2022-09-12T15:31:24.514Z,6.93
2022-09-12T15:33:52.075Z,9.20
2022-09-12T15:36:21.613Z,9.00
2022-09-12T15:38:49.577Z,7.07
2022-09-12T15:41:19.940Z,8.77
2022-09-12T15:43:48.228Z,10.17
2022-09-12T15:46:17.207Z,8.82
2022-09-12T15:48:44.738Z,11.13
2022-09-12T15:51:15.691Z,10.30
2022-09-12T15:53:44.150Z,11.07
2022-09-12T15:56:12.080Z,8.48
2022-09-12T15:58:54.745Z,10.73
2022-09-12T16:01:25.143Z,12.85
2022-09-12T16:03:52.404Z,10.57
2022-09-12T16:06:19.644Z,12.20
2022-09-12T16:08:47.027Z,15.77
2022-09-12T16:11:22.824Z,15.75
2022-09-12T16:13:52.358Z,11.80
2022-09-12T16:16:19.823Z,12.52
2022-09-12T16:18:47.444Z,16.15
2022-09-12T16:21:15.867Z,6.72
2022-09-12T16:23:44.737Z,9.20
2022-09-12T16:26:12.066Z,8.82
2022-09-12T16:28:39.570Z,13.52
2022-09-12T16:31:10.160Z,22.88
2022-09-12T16:33:38.187Z,12.18
2022-09-12T16:36:17.483Z,13.73
2022-09-12T16:38:50.313Z,13.02
2022-09-12T16:41:20.010Z,15.38
2022-09-12T16:43:47.831Z,18.75
2022-09-12T16:46:18.086Z,23.15
2022-09-12T16:48:52.023Z,13.15
2022-09-12T16:51:26.091Z,12.40
2022-09-12T16:53:55.142Z,16.85
2022-09-12T16:56:23.395Z,12.65
2022-09-12T16:58:51.547Z,12.85
2022-09-12T17:01:24.796Z,15.88
2022-09-12T17:03:57.085Z,13.45
2022-09-12T17:06:25.661Z,12.50
2022-09-12T17:08:56.036Z,12.43
2022-09-12T17:11:32.418Z,13.90
2022-09-12T17:14:06.059Z,12.80
2022-09-12T17:16:42.360Z,15.18
2022-09-12T17:19:15.585Z,35.45
2022-09-12T17:21:43.163Z,17.42
2022-09-12T17:24:10.670Z,14.32
2022-09-12T17:26:38.010Z,23.85
2022-09-12T17:29:05.948Z,109.18
2022-09-12T17:31:34.112Z,22.80
2022-09-12T17:34:03.200Z,17.27
2022-09-12T17:36:32.042Z,9.27
2022-09-12T17:38:59.987Z,9.73
2022-09-12T17:41:29.087Z,12.27
2022-09-12T17:43:58.102Z,10.30
2022-09-12T17:46:31.027Z,11.00
2022-09-12T17:48:59.024Z,9.68
2022-09-12T17:51:29.054Z,9.32
2022-09-12T17:54:17.358Z,12.75
2022-09-12T17:56:47.381Z,10.90
2022-09-12T17:59:17.556Z,9.68
2022-09-12T18:02:04.141Z,9.13
2022-09-12T18:04:31.833Z,8.50
2022-09-12T18:07:00.537Z,7.78
2022-09-12T18:09:28.680Z,9.63
2022-09-12T18:11:57.297Z,8.27
2022-09-12T18:14:26.258Z,12.15
2022-09-12T18:16:53.921Z,10.10
2022-09-12T18:19:23.399Z,10.23
2022-09-12T18:21:50.809Z,9.70
2022-09-12T18:24:18.207Z,13.93
2022-09-12T18:26:45.811Z,10.60
2022-09-12T18:29:16.886Z,12.70
2022-09-12T18:31:44.867Z,13.60
2022-09-12T18:34:13.865Z,9.45
2022-09-12T18:36:42.627Z,7.70
2022-09-12T18:39:11.286Z,13.25
2022-09-12T18:41:39.634Z,8.32
2022-09-12T18:44:07.555Z,9.55
2022-09-12T18:46:35.499Z,14.23
2022-09-12T18:49:04.714Z,23.23
2022-09-12T18:51:36.144Z,32.03
2022-09-12T18:54:06.465Z,30.40
2022-09-12T18:56:37.628Z,38.85
2022-09-12T18:59:07.121Z,28.30
2022-09-12T19:01:37.783Z,31.45
2022-09-12T19:04:07.784Z,24.98
2022-09-12T19:06:44.335Z,14.60
2022-09-12T19:09:14.103Z,11.90
2022-09-12T19:11:49.672Z,11.60
2022-09-12T19:14:20.364Z,9.63
2022-09-12T19:16:47.893Z,12.73
2022-09-12T19:19:15.364Z,13.52
2022-09-12T19:21:43.000Z,14.60
2022-09-12T19:24:11.358Z,14.23
2022-09-12T19:26:39.300Z,15.10
2022-09-12T19:29:07.784Z,10.68
2022-09-12T19:31:35.603Z,9.07
2022-09-12T19:34:06.060Z,8.25
2022-09-12T19:36:50.147Z,10.90
2022-09-12T19:39:19.940Z,10.30
2022-09-12T19:41:48.485Z,8.68
2022-09-12T19:44:16.090Z,10.45
2022-09-12T19:46:43.945Z,12.55
2022-09-12T19:49:13.064Z,11.00
2022-09-12T19:51:40.931Z,10.38
2022-09-12T19:54:09.173Z,8.45
2022-09-12T19:56:36.702Z,8.93
2022-09-12T19:59:05.290Z,14.05
2022-09-12T20:01:33.284Z,11.73
2022-09-12T20:04:00.557Z,11.40
2022-09-12T20:06:28.071Z,12.15
2022-09-12T20:08:56.078Z,10.88
2022-09-12T20:11:24.520Z,8.05
2022-09-12T20:13:52.275Z,8.50
2022-09-12T20:16:26.291Z,8.95
2022-09-12T20:18:55.991Z,7.30
2022-09-12T20:21:25.734Z,9.15
2022-09-12T20:23:52.910Z,10.82
2022-09-12T20:26:20.420Z,8.43
2022-09-12T20:28:48.051Z,9.63
2022-09-12T20:31:16.759Z,8.27
2022-09-12T20:33:47.571Z,8.10
2022-09-12T20:36:20.098Z,9.35
2022-09-12T20:38:49.793Z,14.38
2022-09-12T20:41:18.755Z,8.38
2022-09-12T20:43:52.948Z,12.50
2022-09-12T20:46:22.195Z,10.77
2022-09-12T20:48:51.689Z,9.63
2022-09-12T20:51:20.031Z,11.20
2022-09-12T20:53:47.651Z,12.00
2022-09-12T20:56:15.306Z,12.15
2022-09-12T20:58:44.372Z,8.18
2022-09-12T21:01:15.846Z,9.20
2022-09-12T21:03:44.813Z,9.25
2022-09-12T21:06:13.623Z,11.25
2022-09-12T21:08:40.844Z,8.23
2022-09-12T21:11:08.873Z,10.50
2022-09-12T21:13:37.096Z,10.60
2022-09-12T21:16:08.685Z,8.45
2022-09-12T21:18:37.229Z,8.77
2022-09-12T21:21:06.351Z,7.97
2022-09-12T21:23:34.577Z,12.40
2022-09-12T21:26:03.065Z,10.80
2022-09-12T21:28:31.030Z,7.45
2022-09-12T21:30:58.415Z,7.80
2022-09-12T21:33:26.076Z,9.23
2022-09-12T21:35:56.035Z,8.77
2022-09-12T21:38:23.287Z,8.10
2022-09-12T21:40:50.586Z,9.02
2022-09-12T21:43:17.754Z,12.13
2022-09-12T21:45:44.864Z,9.40
2022-09-12T21:48:12.293Z,8.60
2022-09-12T21:50:39.389Z,9.88
2022-09-12T21:53:06.589Z,9.95
2022-09-12T21:55:34.325Z,12.35
2022-09-12T21:58:01.540Z,11.40
2022-09-12T22:00:28.893Z,11.32
2022-09-12T22:02:56.282Z,11.35
2022-09-12T22:05:24.634Z,9.07
2022-09-12T22:07:52.548Z,13.50
2022-09-12T22:10:19.845Z,12.80
2022-09-12T22:12:47.090Z,9.18
2022-09-12T22:15:38.975Z,10.77
2022-09-12T22:18:01.868Z,10.65
2022-09-12T22:20:28.977Z,13.88
2022-09-12T22:23:14.712Z,13.02
2022-09-12T22:25:42.024Z,12.70
2022-09-12T22:28:09.205Z,11.85
2022-09-12T22:30:36.496Z,12.25
2022-09-12T22:33:03.905Z,11.35
2022-09-12T22:35:31.168Z,13.02
2022-09-12T22:37:58.567Z,11.35
2022-09-12T22:40:25.678Z,11.75
2022-09-12T22:42:54.009Z,11.73
2022-09-12T22:45:21.095Z,11.20
2022-09-12T22:47:48.445Z,13.35
2022-09-12T22:50:15.840Z,10.27
2022-09-12T22:52:43.175Z,11.93
2022-09-12T22:55:11.595Z,17.00
2022-09-12T22:57:39.729Z,10.38
2022-09-12T23:00:10.478Z,15.10
2022-09-12T23:02:38.180Z,11.50
2022-09-12T23:05:06.135Z,9.70
2022-09-12T23:07:33.681Z,10.35
2022-09-12T23:10:00.785Z,11.85
2022-09-12T23:12:28.292Z,15.02
2022-09-12T23:14:55.390Z,9.65
2022-09-12T23:17:23.042Z,9.35
2022-09-12T23:19:50.158Z,9.80
2022-09-12T23:22:17.660Z,12.20
2022-09-12T23:24:44.973Z,11.27
2022-09-12T23:27:12.271Z,10.70
2022-09-12T23:29:39.438Z,11.00
2022-09-12T23:32:06.813Z,11.15
2022-09-12T23:34:34.116Z,10.90
2022-09-12T23:37:01.259Z,10.60
2022-09-12T23:39:28.901Z,10.07
2022-09-12T23:41:56.396Z,12.70
2022-09-12T23:44:23.603Z,8.40
2022-09-12T23:46:51.098Z,9.27
2022-09-12T23:49:18.186Z,11.35
2022-09-12T23:51:46.492Z,7.95
2022-09-12T23:54:14.039Z,10.60
2022-09-12T23:56:41.253Z,9.25
2022-09-12T23:59:08.428Z,11.60
